sensor_id;sensor_type;location;lat;lon;timestamp;pressure;altitude;pressure_sealevel;temperature;humidity
40592;BME280;26301;42.832;23.918;2024-03-25T00:01:30;91806.13;;;5.56;100.00
40592;BME280;26301;42.832;23.918;2024-03-25T00:03:55;91798.84;;;5.47;100.00
40592;BME280;26301;42.832;23.918;2024-03-25T00:06:21;91794.69;;;5.41;100.00
40592;BME280;26301;42.832;23.918;2024-03-25T00:08:46;91811.31;;;5.39;100.00
40592;BME280;26301;42.832;23.918;2024-03-25T00:11:12;91847.13;;;5.56;100.00
40592;BME280;26301;42.832;23.918;2024-03-25T00:13:38;91838.28;;;5.63;100.00
40592;BME280;26301;42.832;23.918;2024-03-25T00:16:03;91817.47;;;5.60;100.00
40592;BME280;26301;42.832;23.918;2024-03-25T00:18:30;91822.72;;;5.70;100.00
40592;BME280;26301;42.832;23.918;2024-03-25T00:20:56;91821.06;;;5.81;100.00
40592;BME280;26301;42.832;23.918;2024-03-25T00:23:22;91851.56;;;5.99;100.00
40592;BME280;26301;42.832;23.918;2024-03-25T00:25:47;91835.50;;;5.87;100.00
40592;BME280;26301;42.832;23.918;2024-03-25T00:28:13;91817.41;;;5.77;100.00
40592;BME280;26301;42.832;23.918;2024-03-25T00:30:38;91852.91;;;6.07;100.00
40592;BME280;26301;42.832;23.918;2024-03-25T00:33:04;91833.56;;;5.94;98.26
40592;BME280;26301;42.832;23.918;2024-03-25T00:35:32;91863.19;;;6.07;97.67
40592;BME280;26301;42.832;23.918;2024-03-25T00:37:58;91840.16;;;5.90;97.81
40592;BME280;26301;42.832;23.918;2024-03-25T00:40:24;91852.25;;;5.94;97.96
40592;BME280;26301;42.832;23.918;2024-03-25T00:42:49;91864.19;;;6.06;97.55
40592;BME280;26301;42.832;23.918;2024-03-25T00:45:15;91831.66;;;5.89;98.12
40592;BME280;26301;42.832;23.918;2024-03-25T00:47:41;91860.13;;;6.10;98.85
40592;BME280;26301;42.832;23.918;2024-03-25T00:50:07;91860.38;;;6.08;98.58
40592;BME280;26301;42.832;23.918;2024-03-25T00:52:34;91861.69;;;6.11;98.82
40592;BME280;26301;42.832;23.918;2024-03-25T00:55:00;91839.81;;;6.03;97.21
40592;BME280;26301;42.832;23.918;2024-03-25T00:57:25;91832.53;;;5.95;91.92
40592;BME280;26301;42.832;23.918;2024-03-25T00:59:51;91833.44;;;5.89;91.43
40592;BME280;26301;42.832;23.918;2024-03-25T01:02:16;91829.09;;;5.89;92.73
40592;BME280;26301;42.832;23.918;2024-03-25T01:04:42;91837.03;;;5.88;93.17
40592;BME280;26301;42.832;23.918;2024-03-25T01:07:08;91837.13;;;5.93;93.73
40592;BME280;26301;42.832;23.918;2024-03-25T01:09:34;91825.72;;;5.84;93.66
40592;BME280;26301;42.832;23.918;2024-03-25T01:11:59;91834.66;;;5.81;94.90
40592;BME280;26301;42.832;23.918;2024-03-25T01:14:25;91843.72;;;5.89;94.01
40592;BME280;26301;42.832;23.918;2024-03-25T01:16:51;91840.78;;;5.80;92.06
40592;BME280;26301;42.832;23.918;2024-03-25T01:19:17;91851.56;;;5.82;92.84
40592;BME280;26301;42.832;23.918;2024-03-25T01:21:42;91839.16;;;5.74;93.53
40592;BME280;26301;42.832;23.918;2024-03-25T01:24:07;91827.72;;;5.60;93.75
40592;BME280;26301;42.832;23.918;2024-03-25T01:26:33;91844.16;;;5.64;95.65
40592;BME280;26301;42.832;23.918;2024-03-25T01:28:58;91840.22;;;5.56;96.26
40592;BME280;26301;42.832;23.918;2024-03-25T01:31:24;91835.63;;;5.58;95.44
40592;BME280;26301;42.832;23.918;2024-03-25T01:33:49;91823.84;;;5.57;94.17
40592;BME280;26301;42.832;23.918;2024-03-25T01:36:16;91839.69;;;5.54;94.25
40592;BME280;26301;42.832;23.918;2024-03-25T01:38:44;91807.59;;;5.30;95.85
40592;BME280;26301;42.832;23.918;2024-03-25T01:41:10;91838.16;;;5.36;94.13
40592;BME280;26301;42.832;23.918;2024-03-25T01:43:36;91824.72;;;5.29;93.87
40592;BME280;26301;42.832;23.918;2024-03-25T01:46:02;91803.84;;;5.20;93.92
40592;BME280;26301;42.832;23.918;2024-03-25T01:48:28;91811.91;;;5.29;94.10
40592;BME280;26301;42.832;23.918;2024-03-25T01:50:55;91803.25;;;5.30;93.99
40592;BME280;26301;42.832;23.918;2024-03-25T01:53:23;91769.97;;;5.13;94.00
40592;BME280;26301;42.832;23.918;2024-03-25T01:55:49;91785.41;;;5.18;94.04
40592;BME280;26301;42.832;23.918;2024-03-25T01:58:19;91797.75;;;5.21;93.63
40592;BME280;26301;42.832;23.918;2024-03-25T02:00:45;91807.81;;;5.28;92.89
40592;BME280;26301;42.832;23.918;2024-03-25T02:03:10;91808.16;;;5.15;94.27
40592;BME280;26301;42.832;23.918;2024-03-25T02:05:36;91805.72;;;5.08;94.38
40592;BME280;26301;42.832;23.918;2024-03-25T02:08:03;91790.53;;;5.01;94.39
40592;BME280;26301;42.832;23.918;2024-03-25T02:10:29;91804.19;;;5.07;93.83
40592;BME280;26301;42.832;23.918;2024-03-25T02:12:55;91795.19;;;4.71;94.61
40592;BME280;26301;42.832;23.918;2024-03-25T02:15:20;91797.72;;;4.54;96.03
40592;BME280;26301;42.832;23.918;2024-03-25T02:17:46;91833.88;;;4.57;96.10
40592;BME280;26301;42.832;23.918;2024-03-25T02:20:12;91799.91;;;4.17;96.14
40592;BME280;26301;42.832;23.918;2024-03-25T02:22:41;91833.00;;;4.23;96.77
40592;BME280;26301;42.832;23.918;2024-03-25T02:25:09;91828.13;;;4.22;98.70
40592;BME280;26301;42.832;23.918;2024-03-25T02:27:38;91823.47;;;4.19;98.22
40592;BME280;26301;42.832;23.918;2024-03-25T02:30:12;91797.19;;;4.06;98.44
40592;BME280;26301;42.832;23.918;2024-03-25T02:32:38;91785.72;;;4.09;98.65
40592;BME280;26301;42.832;23.918;2024-03-25T02:35:07;91815.31;;;4.33;99.61
40592;BME280;26301;42.832;23.918;2024-03-25T02:37:35;91813.72;;;4.32;99.33
40592;BME280;26301;42.832;23.918;2024-03-25T02:40:02;91802.69;;;4.15;99.03
40592;BME280;26301;42.832;23.918;2024-03-25T02:42:31;91829.09;;;4.21;99.46
40592;BME280;26301;42.832;23.918;2024-03-25T02:44:57;91833.91;;;4.17;99.16
40592;BME280;26301;42.832;23.918;2024-03-25T02:47:22;91843.00;;;4.25;98.61
40592;BME280;26301;42.832;23.918;2024-03-25T02:49:48;91829.50;;;4.12;98.09
40592;BME280;26301;42.832;23.918;2024-03-25T02:52:14;91838.34;;;4.22;97.36
40592;BME280;26301;42.832;23.918;2024-03-25T02:54:39;91834.47;;;4.19;97.74
40592;BME280;26301;42.832;23.918;2024-03-25T02:57:05;91832.47;;;4.21;98.48
40592;BME280;26301;42.832;23.918;2024-03-25T02:59:30;91806.53;;;4.01;99.06
40592;BME280;26301;42.832;23.918;2024-03-25T03:01:56;91814.16;;;4.12;99.36
40592;BME280;26301;42.832;23.918;2024-03-25T03:04:21;91802.59;;;4.10;98.86
40592;BME280;26301;42.832;23.918;2024-03-25T03:06:47;91834.88;;;4.28;98.81
40592;BME280;26301;42.832;23.918;2024-03-25T03:09:12;91836.44;;;4.29;98.34
40592;BME280;26301;42.832;23.918;2024-03-25T03:11:38;91837.59;;;4.38;98.16
40592;BME280;26301;42.832;23.918;2024-03-25T03:14:04;91821.44;;;4.21;97.74
40592;BME280;26301;42.832;23.918;2024-03-25T03:16:29;91854.84;;;4.43;98.07
40592;BME280;26301;42.832;23.918;2024-03-25T03:18:55;91826.25;;;4.17;96.94
40592;BME280;26301;42.832;23.918;2024-03-25T03:21:21;91835.88;;;4.27;97.14
40592;BME280;26301;42.832;23.918;2024-03-25T03:23:46;91842.41;;;4.34;97.38
40592;BME280;26301;42.832;23.918;2024-03-25T03:26:12;91826.44;;;4.27;98.13
40592;BME280;26301;42.832;23.918;2024-03-25T03:28:39;91848.72;;;4.44;97.69
40592;BME280;26301;42.832;23.918;2024-03-25T03:31:05;91818.56;;;4.17;97.58
40592;BME280;26301;42.832;23.918;2024-03-25T03:33:31;91848.06;;;4.37;98.13
40592;BME280;26301;42.832;23.918;2024-03-25T03:35:56;91858.38;;;4.42;98.44
40592;BME280;26301;42.832;23.918;2024-03-25T03:38:22;91869.25;;;4.49;98.59
40592;BME280;26301;42.832;23.918;2024-03-25T03:41:01;91819.28;;;4.12;98.71
40592;BME280;26301;42.832;23.918;2024-03-25T03:43:27;91856.06;;;4.40;97.30
40592;BME280;26301;42.832;23.918;2024-03-25T03:45:52;91864.59;;;4.46;96.83
40592;BME280;26301;42.832;23.918;2024-03-25T03:48:18;91865.84;;;4.43;97.04
40592;BME280;26301;42.832;23.918;2024-03-25T03:50:44;91862.72;;;4.41;97.30
40592;BME280;26301;42.832;23.918;2024-03-25T03:53:11;91836.31;;;4.24;98.51
40592;BME280;26301;42.832;23.918;2024-03-25T03:55:37;91851.75;;;4.29;99.05
40592;BME280;26301;42.832;23.918;2024-03-25T03:58:02;91874.63;;;4.35;99.60
40592;BME280;26301;42.832;23.918;2024-03-25T04:00:28;91842.81;;;4.15;99.94
40592;BME280;26301;42.832;23.918;2024-03-25T04:02:53;91892.63;;;4.41;99.84
40592;BME280;26301;42.832;23.918;2024-03-25T04:05:19;91861.34;;;4.22;99.38
40592;BME280;26301;42.832;23.918;2024-03-25T04:07:45;91821.13;;;3.88;98.68
40592;BME280;26301;42.832;23.918;2024-03-25T04:10:11;91912.19;;;4.35;98.78
40592;BME280;26301;42.832;23.918;2024-03-25T04:12:36;91879.13;;;4.17;98.53
40592;BME280;26301;42.832;23.918;2024-03-25T04:15:03;91818.13;;;3.80;97.74
40592;BME280;26301;42.832;23.918;2024-03-25T04:17:29;91900.22;;;4.24;99.11
40592;BME280;26301;42.832;23.918;2024-03-25T04:19:54;91901.47;;;4.21;99.02
40592;BME280;26301;42.832;23.918;2024-03-25T04:22:20;91911.25;;;4.24;98.09
40592;BME280;26301;42.832;23.918;2024-03-25T04:24:46;91894.50;;;4.05;98.26
40592;BME280;26301;42.832;23.918;2024-03-25T04:27:12;91919.22;;;4.28;99.16
40592;BME280;26301;42.832;23.918;2024-03-25T04:29:37;91876.75;;;3.98;100.00
40592;BME280;26301;42.832;23.918;2024-03-25T04:32:03;91914.34;;;4.15;99.02
40592;BME280;26301;42.832;23.918;2024-03-25T04:34:29;91904.41;;;4.01;99.40
40592;BME280;26301;42.832;23.918;2024-03-25T04:36:55;91921.19;;;3.97;100.00
40592;BME280;26301;42.832;23.918;2024-03-25T04:39:21;91942.72;;;4.13;100.00
40592;BME280;26301;42.832;23.918;2024-03-25T04:41:47;91939.28;;;4.07;100.00
40592;BME280;26301;42.832;23.918;2024-03-25T04:44:13;91915.19;;;3.92;100.00
40592;BME280;26301;42.832;23.918;2024-03-25T04:46:39;91904.53;;;3.95;100.00
40592;BME280;26301;42.832;23.918;2024-03-25T04:49:05;91906.31;;;3.94;100.00
40592;BME280;26301;42.832;23.918;2024-03-25T04:51:30;91903.06;;;3.99;100.00
40592;BME280;26301;42.832;23.918;2024-03-25T04:53:57;91949.03;;;4.10;100.00
40592;BME280;26301;42.832;23.918;2024-03-25T04:56:22;91909.72;;;3.88;100.00
40592;BME280;26301;42.832;23.918;2024-03-25T04:58:48;91927.72;;;3.93;100.00
40592;BME280;26301;42.832;23.918;2024-03-25T05:01:13;91922.19;;;3.73;100.00
40592;BME280;26301;42.832;23.918;2024-03-25T05:03:39;91966.72;;;4.00;100.00
40592;BME280;26301;42.832;23.918;2024-03-25T05:06:04;91948.50;;;3.85;100.00
40592;BME280;26301;42.832;23.918;2024-03-25T05:08:30;91993.38;;;4.04;100.00
40592;BME280;26301;42.832;23.918;2024-03-25T05:10:56;91996.03;;;4.09;100.00
40592;BME280;26301;42.832;23.918;2024-03-25T05:13:21;91983.59;;;4.13;100.00
40592;BME280;26301;42.832;23.918;2024-03-25T05:15:53;91985.13;;;4.14;100.00
40592;BME280;26301;42.832;23.918;2024-03-25T05:18:18;91969.25;;;4.12;100.00
40592;BME280;26301;42.832;23.918;2024-03-25T05:20:44;91995.69;;;4.18;98.31
40592;BME280;26301;42.832;23.918;2024-03-25T05:23:10;91993.91;;;4.18;100.00
40592;BME280;26301;42.832;23.918;2024-03-25T05:25:36;91950.97;;;3.80;100.00
40592;BME280;26301;42.832;23.918;2024-03-25T05:28:01;91972.94;;;3.69;100.00
40592;BME280;26301;42.832;23.918;2024-03-25T05:30:27;91991.47;;;3.88;94.66
40592;BME280;26301;42.832;23.918;2024-03-25T05:32:52;91968.94;;;3.73;95.38
40592;BME280;26301;42.832;23.918;2024-03-25T05:35:18;91990.25;;;3.90;94.03
40592;BME280;26301;42.832;23.918;2024-03-25T05:37:44;92002.03;;;3.80;94.37
40592;BME280;26301;42.832;23.918;2024-03-25T05:40:09;92006.25;;;3.86;95.92
40592;BME280;26301;42.832;23.918;2024-03-25T05:42:38;91986.47;;;3.81;97.64
40592;BME280;26301;42.832;23.918;2024-03-25T05:45:03;92013.25;;;3.90;94.85
40592;BME280;26301;42.832;23.918;2024-03-25T05:47:29;91989.72;;;3.77;93.90
40592;BME280;26301;42.832;23.918;2024-03-25T05:49:54;92003.13;;;3.84;91.73
40592;BME280;26301;42.832;23.918;2024-03-25T05:52:20;92024.00;;;3.69;89.44
40592;BME280;26301;42.832;23.918;2024-03-25T05:54:46;91971.31;;;3.21;88.72
40592;BME280;26301;42.832;23.918;2024-03-25T05:57:11;92031.03;;;3.74;87.88
40592;BME280;26301;42.832;23.918;2024-03-25T05:59:37;92033.34;;;3.87;90.75
40592;BME280;26301;42.832;23.918;2024-03-25T06:02:02;92017.59;;;3.90;96.47
40592;BME280;26301;42.832;23.918;2024-03-25T06:04:28;92014.91;;;3.97;99.61
40592;BME280;26301;42.832;23.918;2024-03-25T06:06:53;92036.03;;;4.04;88.92
40592;BME280;26301;42.832;23.918;2024-03-25T06:09:19;92009.91;;;3.90;87.90
40592;BME280;26301;42.832;23.918;2024-03-25T06:11:44;92046.81;;;4.29;91.76
40592;BME280;26301;42.832;23.918;2024-03-25T06:14:10;92067.81;;;4.31;86.67
40592;BME280;26301;42.832;23.918;2024-03-25T06:16:35;92063.72;;;4.30;88.27
40592;BME280;26301;42.832;23.918;2024-03-25T06:19:01;92047.38;;;4.20;87.85
40592;BME280;26301;42.832;23.918;2024-03-25T06:21:26;92084.25;;;4.47;86.91
40592;BME280;26301;42.832;23.918;2024-03-25T06:23:52;92078.38;;;4.47;87.61
40592;BME280;26301;42.832;23.918;2024-03-25T06:26:18;92052.69;;;4.30;86.56
40592;BME280;26301;42.832;23.918;2024-03-25T06:28:43;92078.94;;;4.49;85.62
40592;BME280;26301;42.832;23.918;2024-03-25T06:31:10;92089.03;;;4.55;86.42
40592;BME280;26301;42.832;23.918;2024-03-25T06:33:54;92060.34;;;4.42;83.53
40592;BME280;26301;42.832;23.918;2024-03-25T06:36:38;92085.16;;;4.65;84.68
40592;BME280;26301;42.832;23.918;2024-03-25T06:39:04;92101.59;;;4.69;81.53
40592;BME280;26301;42.832;23.918;2024-03-25T06:41:29;92065.13;;;4.50;82.24
40592;BME280;26301;42.832;23.918;2024-03-25T06:43:55;92081.16;;;4.45;78.39
40592;BME280;26301;42.832;23.918;2024-03-25T06:46:20;92090.59;;;4.68;80.40
40592;BME280;26301;42.832;23.918;2024-03-25T06:48:46;92075.81;;;4.35;76.38
40592;BME280;26301;42.832;23.918;2024-03-25T06:51:11;92099.16;;;4.62;80.20
40592;BME280;26301;42.832;23.918;2024-03-25T06:53:37;92095.59;;;4.63;79.17
40592;BME280;26301;42.832;23.918;2024-03-25T06:56:02;92083.25;;;4.60;79.56
40592;BME280;26301;42.832;23.918;2024-03-25T06:58:28;92097.78;;;4.83;80.72
40592;BME280;26301;42.832;23.918;2024-03-25T07:00:54;92108.34;;;4.98;74.99
40592;BME280;26301;42.832;23.918;2024-03-25T07:03:21;92104.66;;;5.06;75.40
40592;BME280;26301;42.832;23.918;2024-03-25T07:05:48;92108.78;;;4.95;76.17
40592;BME280;26301;42.832;23.918;2024-03-25T07:08:15;92092.34;;;4.91;78.54
40592;BME280;26301;42.832;23.918;2024-03-25T07:10:44;92103.22;;;4.98;76.08
40592;BME280;26301;42.832;23.918;2024-03-25T07:13:10;92118.44;;;5.05;75.36
40592;BME280;26301;42.832;23.918;2024-03-25T07:15:36;92125.91;;;5.07;72.72
40592;BME280;26301;42.832;23.918;2024-03-25T07:18:02;92137.16;;;4.94;70.97
40592;BME280;26301;42.832;23.918;2024-03-25T07:20:27;92114.03;;;4.77;70.45
40592;BME280;26301;42.832;23.918;2024-03-25T07:22:53;92142.75;;;4.91;74.12
40592;BME280;26301;42.832;23.918;2024-03-25T07:25:22;92148.31;;;4.88;70.19
40592;BME280;26301;42.832;23.918;2024-03-25T07:27:48;92136.19;;;4.83;70.78
40592;BME280;26301;42.832;23.918;2024-03-25T07:30:14;92117.28;;;4.61;74.40
40592;BME280;26301;42.832;23.918;2024-03-25T07:32:40;92162.53;;;4.72;75.69
40592;BME280;26301;42.832;23.918;2024-03-25T07:35:05;92168.78;;;4.64;73.89
40592;BME280;26301;42.832;23.918;2024-03-25T07:37:33;92158.63;;;4.81;78.87
40592;BME280;26301;42.832;23.918;2024-03-25T07:39:58;92148.16;;;5.18;77.39
40592;BME280;26301;42.832;23.918;2024-03-25T07:42:24;92144.09;;;5.34;71.67
40592;BME280;26301;42.832;23.918;2024-03-25T07:44:49;92117.84;;;5.55;74.75
40592;BME280;26301;42.832;23.918;2024-03-25T07:47:15;92144.63;;;6.22;71.20
40592;BME280;26301;42.832;23.918;2024-03-25T07:49:40;92102.75;;;5.99;68.57
40592;BME280;26301;42.832;23.918;2024-03-25T07:52:06;92121.34;;;6.23;68.10
40592;BME280;26301;42.832;23.918;2024-03-25T07:54:32;92145.03;;;6.47;67.10
40592;BME280;26301;42.832;23.918;2024-03-25T07:56:58;92143.00;;;6.66;73.50
40592;BME280;26301;42.832;23.918;2024-03-25T07:59:23;92141.13;;;6.61;63.02
40592;BME280;26301;42.832;23.918;2024-03-25T08:01:49;92150.78;;;6.71;62.19
40592;BME280;26301;42.832;23.918;2024-03-25T08:04:14;92145.56;;;6.83;63.79
40592;BME280;26301;42.832;23.918;2024-03-25T08:06:40;92135.78;;;6.63;62.94
40592;BME280;26301;42.832;23.918;2024-03-25T08:09:05;92159.72;;;6.52;61.07
40592;BME280;26301;42.832;23.918;2024-03-25T08:11:31;92087.00;;;5.79;59.20
40592;BME280;26301;42.832;23.918;2024-03-25T08:13:57;92125.91;;;5.92;62.17
40592;BME280;26301;42.832;23.918;2024-03-25T08:16:23;92111.78;;;5.73;63.99
40592;BME280;26301;42.832;23.918;2024-03-25T08:18:48;92140.06;;;5.78;58.99
40592;BME280;26301;42.832;23.918;2024-03-25T08:21:14;92130.16;;;5.99;63.00
40592;BME280;26301;42.832;23.918;2024-03-25T08:23:39;92150.75;;;6.04;63.06
40592;BME280;26301;42.832;23.918;2024-03-25T08:26:06;92175.03;;;6.30;60.25
40592;BME280;26301;42.832;23.918;2024-03-25T08:28:32;92164.91;;;6.06;61.38
40592;BME280;26301;42.832;23.918;2024-03-25T08:30:58;92143.53;;;6.01;57.22
40592;BME280;26301;42.832;23.918;2024-03-25T08:33:23;92165.34;;;6.03;59.60
40592;BME280;26301;42.832;23.918;2024-03-25T08:35:48;92188.44;;;6.03;60.35
40592;BME280;26301;42.832;23.918;2024-03-25T08:38:14;92148.72;;;5.77;58.72
40592;BME280;26301;42.832;23.918;2024-03-25T08:40:39;92167.94;;;5.91;58.80
40592;BME280;26301;42.832;23.918;2024-03-25T08:43:06;92148.47;;;5.90;61.16
40592;BME280;26301;42.832;23.918;2024-03-25T08:45:32;92174.72;;;6.26;60.89
40592;BME280;26301;42.832;23.918;2024-03-25T08:47:57;92160.88;;;6.27;59.38
40592;BME280;26301;42.832;23.918;2024-03-25T08:50:23;92164.16;;;6.39;58.70
40592;BME280;26301;42.832;23.918;2024-03-25T08:52:49;92139.81;;;6.25;59.90
40592;BME280;26301;42.832;23.918;2024-03-25T08:55:14;92184.44;;;6.58;58.32
40592;BME280;26301;42.832;23.918;2024-03-25T08:57:40;92184.66;;;6.73;62.11
40592;BME280;26301;42.832;23.918;2024-03-25T09:00:06;92170.13;;;6.79;59.35
40592;BME280;26301;42.832;23.918;2024-03-25T09:02:36;92160.50;;;6.69;60.70
40592;BME280;26301;42.832;23.918;2024-03-25T09:05:02;92185.44;;;7.07;54.84
40592;BME280;26301;42.832;23.918;2024-03-25T09:07:33;92165.25;;;6.77;55.71
40592;BME280;26301;42.832;23.918;2024-03-25T09:09:59;92186.25;;;6.74;53.20
40592;BME280;26301;42.832;23.918;2024-03-25T09:12:43;92164.94;;;6.57;53.91
40592;BME280;26301;42.832;23.918;2024-03-25T09:15:08;92165.28;;;6.82;57.13
40592;BME280;26301;42.832;23.918;2024-03-25T09:17:37;92167.41;;;7.46;62.54
40592;BME280;26301;42.832;23.918;2024-03-25T09:20:03;92163.13;;;7.79;52.87
40592;BME280;26301;42.832;23.918;2024-03-25T09:22:45;92173.16;;;7.53;53.11
40592;BME280;26301;42.832;23.918;2024-03-25T09:25:12;92167.53;;;7.35;50.95
40592;BME280;26301;42.832;23.918;2024-03-25T09:27:39;92168.66;;;6.83;51.30
40592;BME280;26301;42.832;23.918;2024-03-25T09:30:05;92141.94;;;6.62;53.15
40592;BME280;26301;42.832;23.918;2024-03-25T09:32:31;92162.28;;;6.69;52.01
40592;BME280;26301;42.832;23.918;2024-03-25T09:34:57;92157.53;;;6.60;54.01
40592;BME280;26301;42.832;23.918;2024-03-25T09:37:23;92149.47;;;6.52;54.01
40592;BME280;26301;42.832;23.918;2024-03-25T09:39:48;92191.84;;;6.71;53.72
40592;BME280;26301;42.832;23.918;2024-03-25T09:42:15;92178.69;;;6.84;53.42
40592;BME280;26301;42.832;23.918;2024-03-25T09:44:44;92184.38;;;6.86;52.26
40592;BME280;26301;42.832;23.918;2024-03-25T09:47:10;92175.59;;;6.66;52.32
40592;BME280;26301;42.832;23.918;2024-03-25T09:49:40;92169.22;;;6.51;52.60
40592;BME280;26301;42.832;23.918;2024-03-25T09:52:07;92174.72;;;6.77;54.80
40592;BME280;26301;42.832;23.918;2024-03-25T09:54:33;92170.13;;;6.96;55.67
40592;BME280;26301;42.832;23.918;2024-03-25T09:56:59;92191.91;;;7.32;53.38
40592;BME280;26301;42.832;23.918;2024-03-25T09:59:26;92178.69;;;7.45;54.82
40592;BME280;26301;42.832;23.918;2024-03-25T10:01:53;92161.84;;;7.54;53.26
40592;BME280;26301;42.832;23.918;2024-03-25T10:04:19;92171.00;;;7.67;53.45
40592;BME280;26301;42.832;23.918;2024-03-25T10:06:45;92161.59;;;7.78;53.43
40592;BME280;26301;42.832;23.918;2024-03-25T10:09:10;92109.69;;;7.54;51.09
40592;BME280;26301;42.832;23.918;2024-03-25T10:11:36;92194.25;;;8.05;51.73
40592;BME280;26301;42.832;23.918;2024-03-25T10:14:02;92186.69;;;7.93;49.75
40592;BME280;26301;42.832;23.918;2024-03-25T10:16:28;92180.00;;;7.48;49.87
40592;BME280;26301;42.832;23.918;2024-03-25T10:18:53;92214.19;;;7.48;51.04
40592;BME280;26301;42.832;23.918;2024-03-25T10:21:20;92211.16;;;7.13;51.83
40592;BME280;26301;42.832;23.918;2024-03-25T10:23:46;92227.69;;;6.66;56.71
40592;BME280;26301;42.832;23.918;2024-03-25T10:26:25;92216.63;;;6.49;59.47
40592;BME280;26301;42.832;23.918;2024-03-25T10:29:04;92226.28;;;6.58;63.54
40592;BME280;26301;42.832;23.918;2024-03-25T10:31:31;92226.06;;;6.14;64.58
40592;BME280;26301;42.832;23.918;2024-03-25T10:33:58;92197.22;;;6.07;63.44
40592;BME280;26301;42.832;23.918;2024-03-25T10:36:24;92194.47;;;6.43;69.22
40592;BME280;26301;42.832;23.918;2024-03-25T10:38:54;92219.06;;;6.89;61.85
40592;BME280;26301;42.832;23.918;2024-03-25T10:41:21;92209.16;;;6.98;61.14
40592;BME280;26301;42.832;23.918;2024-03-25T10:43:48;92223.16;;;6.90;58.32
40592;BME280;26301;42.832;23.918;2024-03-25T10:46:20;92236.09;;;6.78;60.22
40592;BME280;26301;42.832;23.918;2024-03-25T10:49:02;92235.81;;;6.46;63.16
40592;BME280;26301;42.832;23.918;2024-03-25T10:51:35;92219.34;;;6.42;61.93
40592;BME280;26301;42.832;23.918;2024-03-25T10:54:01;92204.81;;;6.48;65.86
40592;BME280;26301;42.832;23.918;2024-03-25T10:56:28;92214.22;;;6.42;64.70
40592;BME280;26301;42.832;23.918;2024-03-25T10:58:54;92216.63;;;6.49;62.44
40592;BME280;26301;42.832;23.918;2024-03-25T11:01:22;92205.34;;;6.50;60.71
40592;BME280;26301;42.832;23.918;2024-03-25T11:03:48;92197.81;;;6.43;59.63
40592;BME280;26301;42.832;23.918;2024-03-25T11:06:15;92223.41;;;6.55;58.90
40592;BME280;26301;42.832;23.918;2024-03-25T11:08:42;92203.16;;;6.25;61.33
40592;BME280;26301;42.832;23.918;2024-03-25T11:11:12;92234.22;;;6.28;61.02
40592;BME280;26301;42.832;23.918;2024-03-25T11:13:38;92207.59;;;6.29;63.25
40592;BME280;26301;42.832;23.918;2024-03-25T11:16:05;92211.75;;;6.18;64.73
40592;BME280;26301;42.832;23.918;2024-03-25T11:18:32;92226.69;;;6.22;61.54
40592;BME280;26301;42.832;23.918;2024-03-25T11:21:05;92222.13;;;6.24;62.62
40592;BME280;26301;42.832;23.918;2024-03-25T11:23:38;92218.16;;;6.50;61.74
40592;BME280;26301;42.832;23.918;2024-03-25T11:26:03;92213.78;;;6.62;60.54
40592;BME280;26301;42.832;23.918;2024-03-25T11:28:29;92209.56;;;6.90;62.35
40592;BME280;26301;42.832;23.918;2024-03-25T11:30:55;92191.91;;;6.93;61.33
40592;BME280;26301;42.832;23.918;2024-03-25T11:33:21;92174.38;;;7.07;61.84
40592;BME280;26301;42.832;23.918;2024-03-25T11:35:49;92181.66;;;7.15;56.48
40592;BME280;26301;42.832;23.918;2024-03-25T11:38:14;92199.53;;;7.27;56.39
40592;BME280;26301;42.832;23.918;2024-03-25T11:40:42;92203.31;;;7.41;55.25
40592;BME280;26301;42.832;23.918;2024-03-25T11:43:09;92191.13;;;7.53;54.71
40592;BME280;26301;42.832;23.918;2024-03-25T11:45:34;92166.31;;;7.42;51.79
40592;BME280;26301;42.832;23.918;2024-03-25T11:48:00;92195.63;;;7.85;54.30
40592;BME280;26301;42.832;23.918;2024-03-25T11:50:25;92186.75;;;7.76;51.47
40592;BME280;26301;42.832;23.918;2024-03-25T11:52:51;92209.88;;;7.76;50.55
40592;BME280;26301;42.832;23.918;2024-03-25T11:55:17;92199.28;;;7.67;49.87
40592;BME280;26301;42.832;23.918;2024-03-25T11:57:43;92211.72;;;7.37;50.40
40592;BME280;26301;42.832;23.918;2024-03-25T12:00:09;92193.81;;;7.20;49.75
40592;BME280;26301;42.832;23.918;2024-03-25T12:02:43;92189.06;;;7.12;52.13
40592;BME280;26301;42.832;23.918;2024-03-25T12:05:11;92187.91;;;7.19;48.90
40592;BME280;26301;42.832;23.918;2024-03-25T12:07:36;92209.72;;;7.39;48.80
40592;BME280;26301;42.832;23.918;2024-03-25T12:10:03;92177.66;;;7.02;49.01
40592;BME280;26301;42.832;23.918;2024-03-25T12:12:49;92198.88;;;7.37;51.94
40592;BME280;26301;42.832;23.918;2024-03-25T12:15:18;92217.19;;;7.40;50.47
40592;BME280;26301;42.832;23.918;2024-03-25T12:17:43;92186.50;;;7.33;49.64
40592;BME280;26301;42.832;23.918;2024-03-25T12:20:09;92204.09;;;7.64;49.85
40592;BME280;26301;42.832;23.918;2024-03-25T12:22:38;92189.88;;;7.56;49.16
40592;BME280;26301;42.832;23.918;2024-03-25T12:25:04;92205.59;;;7.60;47.52
40592;BME280;26301;42.832;23.918;2024-03-25T12:27:36;92201.03;;;7.67;49.44
40592;BME280;26301;42.832;23.918;2024-03-25T12:30:03;92210.22;;;7.79;48.15
40592;BME280;26301;42.832;23.918;2024-03-25T12:34:59;92203.25;;;7.80;48.22
40592;BME280;26301;42.832;23.918;2024-03-25T12:37:26;92224.91;;;7.84;47.08
40592;BME280;26301;42.832;23.918;2024-03-25T12:39:52;92197.66;;;7.61;49.18
40592;BME280;26301;42.832;23.918;2024-03-25T12:42:18;92210.03;;;7.64;48.21
40592;BME280;26301;42.832;23.918;2024-03-25T12:44:44;92205.41;;;7.44;46.40
40592;BME280;26301;42.832;23.918;2024-03-25T12:47:10;92224.84;;;7.57;46.85
40592;BME280;26301;42.832;23.918;2024-03-25T12:49:35;92230.53;;;7.59;48.56
40592;BME280;26301;42.832;23.918;2024-03-25T12:52:05;92221.56;;;7.62;48.08
40592;BME280;26301;42.832;23.918;2024-03-25T12:54:31;92226.63;;;7.56;46.93
40592;BME280;26301;42.832;23.918;2024-03-25T12:56:56;92227.00;;;7.43;48.96
40592;BME280;26301;42.832;23.918;2024-03-25T12:59:22;92200.56;;;7.48;50.56